createdAt,value
2022-12-08T00:01:08.896Z,0.60
2022-12-08T00:06:48.297Z,0.60
2022-12-08T00:12:01.499Z,0.60
2022-12-08T00:17:05.394Z,0.60
2022-12-08T00:22:09.118Z,0.50
2022-12-08T00:27:14.844Z,0.60
2022-12-08T00:32:17.159Z,0.50
2022-12-08T00:37:19.436Z,0.40
2022-12-08T00:42:21.673Z,0.50
2022-12-08T00:47:25.097Z,0.40
2022-12-08T00:52:27.530Z,0.50
2022-12-08T00:57:29.965Z,0.40
2022-12-08T01:02:34.333Z,0.40
2022-12-08T01:07:36.953Z,0.40
2022-12-08T01:12:39.192Z,0.30
2022-12-08T01:17:41.605Z,0.20
2022-12-08T01:22:43.842Z,0.20
2022-12-08T01:27:46.071Z,0.20
2022-12-08T01:32:48.339Z,0.20
2022-12-08T01:37:51.046Z,0.10
2022-12-08T01:42:53.257Z,0.00
2022-12-08T01:48:10.306Z,0.00
2022-12-08T01:53:18.041Z,0.00
2022-12-08T01:58:36.170Z,0.00
2022-12-08T02:03:48.050Z,-0.10
2022-12-08T02:08:50.810Z,-0.10
2022-12-08T02:13:54.127Z,-0.10
2022-12-08T02:19:29.826Z,-0.20
2022-12-08T02:24:38.663Z,-0.20
2022-12-08T02:29:59.451Z,-0.20
2022-12-08T02:35:17.184Z,-0.20
2022-12-08T02:40:41.736Z,-0.10
2022-12-08T02:46:02.280Z,-0.20
2022-12-08T02:51:05.026Z,-0.20
2022-12-08T02:56:24.481Z,-0.20
2022-12-08T03:01:56.373Z,-0.20
2022-12-08T03:07:21.514Z,-0.20
2022-12-08T03:12:31.083Z,-0.30
2022-12-08T03:17:34.922Z,-0.30
2022-12-08T03:22:40.782Z,-0.30
2022-12-08T03:27:43.834Z,-0.30
2022-12-08T03:33:09.936Z,-0.30
2022-12-08T03:38:14.875Z,-0.30
2022-12-08T03:43:17.160Z,-0.20
2022-12-08T03:48:19.471Z,-0.30
2022-12-08T03:53:21.695Z,-0.40
2022-12-08T03:58:24.245Z,-0.40
2022-12-08T04:03:26.556Z,-0.40
2022-12-08T04:08:28.866Z,-0.30
2022-12-08T04:13:31.128Z,-0.20
2022-12-08T04:18:34.769Z,-0.10
2022-12-08T04:23:37.191Z,-0.20
2022-12-08T04:28:39.572Z,-0.10
2022-12-08T04:33:42.131Z,-0.10
2022-12-08T04:38:44.377Z,-0.10
2022-12-08T04:43:46.653Z,0.00
2022-12-08T04:48:49.135Z,0.00
2022-12-08T04:53:52.411Z,0.00
2022-12-08T04:58:54.766Z,-0.10
2022-12-08T05:03:57.205Z,-0.20
2022-12-08T05:08:59.453Z,-0.10
2022-12-08T05:14:01.797Z,-0.10
2022-12-08T05:19:04.235Z,-0.30
2022-12-08T05:24:06.642Z,-0.10
2022-12-08T05:29:09.061Z,-0.10
2022-12-08T05:34:11.357Z,-0.20
2022-12-08T05:39:14.341Z,-0.20
2022-12-08T05:44:16.578Z,-0.20
2022-12-08T05:49:19.378Z,-0.10
2022-12-08T05:54:21.616Z,0.00
2022-12-08T05:59:23.919Z,0.10
2022-12-08T06:04:26.196Z,0.20
2022-12-08T06:09:28.559Z,0.20
2022-12-08T06:14:30.876Z,0.30
2022-12-08T06:19:33.199Z,0.40
2022-12-08T06:24:35.470Z,0.60
2022-12-08T06:29:37.714Z,0.60
2022-12-08T06:34:40.006Z,0.60
2022-12-08T06:39:42.355Z,0.60
2022-12-08T06:44:44.666Z,0.60
2022-12-08T06:49:47.069Z,0.70
2022-12-08T06:54:49.301Z,0.70
2022-12-08T06:59:51.688Z,0.80
2022-12-08T07:04:53.981Z,0.70
2022-12-08T07:09:56.228Z,0.70
2022-12-08T07:14:59.005Z,0.80
2022-12-08T07:20:01.558Z,0.90
2022-12-08T07:25:04.528Z,0.90
2022-12-08T07:30:07.823Z,1.00
2022-12-08T07:35:10.433Z,1.00
2022-12-08T07:40:13.357Z,1.00
2022-12-08T07:45:15.717Z,1.00
2022-12-08T07:50:18.459Z,1.10
2022-12-08T07:55:20.795Z,1.10
2022-12-08T08:00:23.429Z,1.20
2022-12-08T08:05:25.893Z,1.30
2022-12-08T08:10:28.288Z,1.40
2022-12-08T08:15:30.816Z,1.40
2022-12-08T08:20:33.192Z,1.50
2022-12-08T08:25:35.445Z,1.50
2022-12-08T08:30:38.004Z,1.40
2022-12-08T08:35:40.808Z,1.50
2022-12-08T08:40:43.090Z,1.50
2022-12-08T08:45:45.333Z,1.50
2022-12-08T08:50:48.018Z,1.50
2022-12-08T08:55:51.624Z,1.50
2022-12-08T09:00:53.970Z,1.50
2022-12-08T09:05:56.789Z,1.60
2022-12-08T09:10:59.213Z,1.70
2022-12-08T09:16:03.508Z,1.80
2022-12-08T09:21:08.811Z,1.80
2022-12-08T09:26:12.479Z,1.80
2022-12-08T09:31:17.827Z,1.90
2022-12-08T09:36:20.670Z,1.90
2022-12-08T09:41:48.766Z,2.10
2022-12-08T09:46:53.548Z,2.20
2022-12-08T09:51:56.318Z,2.30
2022-12-08T09:57:03.334Z,2.20
2022-12-08T10:02:21.978Z,2.50
2022-12-08T10:07:48.493Z,2.80
2022-12-08T10:13:32.014Z,2.70
2022-12-08T10:18:35.212Z,2.70
2022-12-08T10:23:41.103Z,2.80
2022-12-08T10:28:45.454Z,2.90
2022-12-08T10:33:54.332Z,3.00
2022-12-08T10:38:56.649Z,3.10
2022-12-08T10:44:01.720Z,3.20
2022-12-08T10:49:07.119Z,3.20
2022-12-08T10:54:52.243Z,3.20
2022-12-08T10:59:56.052Z,3.10
2022-12-08T11:05:00.180Z,3.00
2022-12-08T11:10:02.941Z,2.80
2022-12-08T11:15:06.222Z,2.80
2022-12-08T11:20:11.308Z,2.70
2022-12-08T11:25:25.082Z,2.70
2022-12-08T11:30:46.794Z,2.80
2022-12-08T11:35:57.805Z,2.90
2022-12-08T11:41:12.304Z,2.90
2022-12-08T11:46:53.532Z,3.00
2022-12-08T11:52:05.020Z,3.00
2022-12-08T11:57:16.832Z,3.00
2022-12-08T12:02:26.061Z,3.10
2022-12-08T12:08:07.280Z,3.30
2022-12-08T12:13:46.705Z,3.50
2022-12-08T12:19:02.061Z,3.60
2022-12-08T12:24:14.608Z,3.60
2022-12-08T12:29:20.928Z,3.50
2022-12-08T12:34:36.599Z,3.50
2022-12-08T12:40:01.292Z,3.50
2022-12-08T12:45:30.818Z,3.60
2022-12-08T12:50:33.288Z,3.60
2022-12-08T12:55:54.314Z,3.70
2022-12-08T13:01:46.557Z,3.60
2022-12-08T13:06:50.581Z,3.70
2022-12-08T13:11:59.227Z,4.00
2022-12-08T13:17:05.017Z,4.30
2022-12-08T13:22:45.055Z,4.20
2022-12-08T13:27:54.502Z,4.30
2022-12-08T13:33:18.234Z,4.10
2022-12-08T13:38:25.686Z,4.00
2022-12-08T13:44:39.153Z,3.90
2022-12-08T14:00:17.810Z,3.80
2022-12-08T14:05:40.472Z,3.70
2022-12-08T14:10:59.915Z,3.70
2022-12-08T14:16:02.400Z,3.70
2022-12-08T14:21:31.264Z,3.60
2022-12-08T14:26:34.734Z,3.70
2022-12-08T14:31:37.450Z,3.50
2022-12-08T14:36:39.801Z,3.50
2022-12-08T14:41:59.897Z,3.50
2022-12-08T14:47:10.292Z,3.40
2022-12-08T14:52:15.146Z,3.30
2022-12-08T14:57:17.801Z,3.30
2022-12-08T15:02:21.759Z,3.20
2022-12-08T15:07:27.435Z,3.10
2022-12-08T15:12:31.895Z,3.00
2022-12-08T15:17:40.307Z,3.00
2022-12-08T15:22:42.940Z,2.90
2022-12-08T15:27:50.550Z,2.90
2022-12-08T15:32:54.404Z,2.90
2022-12-08T15:37:56.891Z,2.90
2022-12-08T15:42:59.204Z,3.00
2022-12-08T15:48:01.529Z,3.00
2022-12-08T15:53:03.948Z,3.00
2022-12-08T16:11:10.719Z,2.90
2022-12-08T16:16:03.480Z,2.90
2022-12-08T16:21:17.879Z,2.90
2022-12-08T16:27:35.052Z,3.00
2022-12-08T16:31:57.861Z,3.00
2022-12-08T16:37:03.281Z,3.00
2022-12-08T16:42:25.771Z,3.00
2022-12-08T16:47:36.016Z,3.00
2022-12-08T16:52:40.601Z,3.00
2022-12-08T16:58:12.168Z,3.10
2022-12-08T17:03:16.281Z,3.00
2022-12-08T17:08:20.815Z,3.00
2022-12-08T17:20:00.374Z,3.10
2022-12-08T17:25:04.136Z,3.00
2022-12-08T17:30:09.412Z,3.00
2022-12-08T17:35:13.416Z,3.00
2022-12-08T17:40:15.940Z,3.00
2022-12-08T17:45:20.994Z,3.00
2022-12-08T17:50:29.453Z,3.00
2022-12-08T17:55:52.831Z,3.00
2022-12-08T18:01:00.219Z,2.90
2022-12-08T18:06:13.927Z,2.90
2022-12-08T18:11:19.432Z,3.00
2022-12-08T18:16:26.561Z,3.00
2022-12-08T18:21:29.310Z,3.00
2022-12-08T18:26:32.199Z,3.00
2022-12-08T18:31:34.881Z,3.10
2022-12-08T18:36:40.504Z,3.00
2022-12-08T18:41:48.568Z,3.10
2022-12-08T18:46:53.815Z,3.00
2022-12-08T18:52:04.280Z,3.10
2022-12-08T18:57:09.419Z,3.10
2022-12-08T19:07:37.676Z,3.20
2022-12-08T19:12:40.294Z,3.20
2022-12-08T19:17:42.547Z,3.20
2022-12-08T19:22:45.346Z,3.20
2022-12-08T19:27:47.902Z,3.10
2022-12-08T19:32:50.662Z,3.10
2022-12-08T19:37:54.781Z,3.20
2022-12-08T19:43:15.902Z,3.10
2022-12-08T19:48:18.211Z,3.10
2022-12-08T19:53:21.008Z,3.00
2022-12-08T19:58:23.311Z,3.10
2022-12-08T20:03:25.742Z,3.10
2022-12-08T20:08:28.699Z,3.20
2022-12-08T20:13:45.554Z,3.20
2022-12-08T20:18:48.684Z,3.10
2022-12-08T20:23:51.561Z,3.10
2022-12-08T20:28:53.946Z,3.10
2022-12-08T20:33:56.343Z,3.10
2022-12-08T20:38:58.612Z,3.10
2022-12-08T20:44:00.886Z,3.10
2022-12-08T20:49:05.484Z,2.90
2022-12-08T20:54:09.699Z,2.90
2022-12-08T20:59:17.125Z,2.90
2022-12-08T21:04:20.888Z,2.80
2022-12-08T21:09:23.659Z,2.70
2022-12-08T21:14:26.132Z,2.80
2022-12-08T21:19:28.891Z,2.80
2022-12-08T21:24:34.387Z,2.80
2022-12-08T21:29:37.124Z,2.70
2022-12-08T21:34:39.508Z,2.80
2022-12-08T21:39:42.159Z,2.70
2022-12-08T21:44:44.491Z,2.70
2022-12-08T21:49:46.834Z,2.70
2022-12-08T21:54:49.160Z,2.80
2022-12-08T21:59:51.504Z,2.80
2022-12-08T22:04:53.947Z,2.80
2022-12-08T22:09:56.299Z,2.60
2022-12-08T22:14:58.573Z,2.60
2022-12-08T22:20:00.902Z,2.80
2022-12-08T22:25:06.497Z,2.80
2022-12-08T22:30:10.687Z,2.70
2022-12-08T22:35:13.766Z,2.80
2022-12-08T22:40:16.311Z,2.90
2022-12-08T22:45:18.880Z,2.90
2022-12-08T22:50:21.257Z,2.90
2022-12-08T22:55:23.738Z,2.70
2022-12-08T23:00:26.121Z,2.60
2022-12-08T23:05:35.754Z,2.70
2022-12-08T23:10:39.757Z,2.60
2022-12-08T23:15:42.190Z,2.70
2022-12-08T23:20:45.076Z,2.60
2022-12-08T23:25:47.828Z,2.60
2022-12-08T23:30:50.506Z,2.50
2022-12-08T23:35:59.180Z,2.70
2022-12-08T23:41:07.755Z,2.60
2022-12-08T23:46:10.485Z,2.80
2022-12-08T23:51:13.549Z,2.80
2022-12-08T23:56:17.909Z,2.80
